Time;durP1;ratioP1;P1;durP2;ratioP2;P2;SDS_P1;SDS_P2;PMS_P1;PMS_P2;Temp;Humidity;BMP_temperature;BMP_pressure;BME280_temperature;BME280_humidity;BME280_pressure;Samples;Min_cycle;Max_cycle;Signal;HPM_P1;HPM_P2
2023/09/10 00:02:07;;;;;;;;;;;;;;;23.15;36.28;102171.47;106750;1256;25353;-54
2023/09/10 00:04:34;;;;;;;;;;;;;;;23.13;36.28;102172.45;106755;1267;25386;-50
2023/09/10 00:07:01;;;;;;;;;;;;;;;23.11;36.83;102169.77;106813;1267;25344;-49
2023/09/10 00:09:28;;;;;;;;;;;;;;;22.98;37.08;102171.33;106768;1270;25396;-49
2023/09/10 00:11:55;;;;;;;;;;;;;;;22.93;37.10;102174.58;106571;1270;25315;-50
2023/09/10 00:14:22;;;;;;;;;;;;;;;22.90;37.17;102176.67;106842;1266;25503;-51
2023/09/10 00:16:49;;;;;;;;;;;;;;;22.88;37.15;102178.41;106736;1262;25336;-50
2023/09/10 00:19:16;;;;;;;;;;;;;;;22.92;36.72;102176.95;105379;1269;1003258;-49
2023/09/10 00:21:43;;;;;;;;;;;;;;;22.87;36.67;102173.84;106822;1267;25475;-49
2023/09/10 00:24:11;;;;;;;;;;;;;;;22.91;36.95;102175.41;106773;1267;25331;-50
2023/09/10 00:26:37;;;;;;;;;;;;;;;22.95;36.94;102179.08;106677;1270;25381;-52
2023/09/10 00:29:04;;;;;;;;;;;;;;;22.93;36.85;102179.70;106863;1265;22577;-50
2023/09/10 00:31:33;;;;;;;;;;;;;;;22.91;36.64;102181.21;106701;1270;25315;-49
2023/09/10 00:34:00;;;;;;;;;;;;;;;22.89;36.94;102179.54;106778;1265;25315;-50
2023/09/10 00:36:27;;;;;;;;;;;;;;;22.88;36.78;102180.16;106485;1267;487290;-50
2023/09/10 00:38:54;;;;;;;;;;;;;;;22.88;36.70;102184.41;106777;1256;25392;-50
2023/09/10 00:41:21;;;;;;;;;;;;;;;22.86;36.88;102183.80;106805;1267;25316;-51
2023/09/10 00:43:49;;;;;;;;;;;;;;;22.84;36.63;102182.30;106854;1268;25393;-52
2023/09/10 00:46:16;;;;;;;;;;;;;;;22.82;36.71;102182.02;106786;1263;25316;-51
2023/09/10 00:48:43;;;;;;;;;;;;;;;22.81;36.66;102177.83;106816;1264;25392;-51
2023/09/10 00:51:09;;;;;;;;;;;;;;;22.80;36.78;102180.02;106828;1268;25316;-55
2023/09/10 00:53:36;;;;;;;;;;;;;;;22.80;36.82;102184.81;106702;1258;22704;-51
2023/09/10 00:56:03;;;;;;;;;;;;;;;22.77;36.96;102186.55;106886;1267;23172;-55
2023/09/10 00:58:30;;;;;;;;;;;;;;;22.76;36.99;102187.69;106736;1269;25313;-56
2023/09/10 01:00:58;;;;;;;;;;;;;;;22.75;37.16;102186.30;106870;1268;25392;-51
2023/09/10 01:03:25;;;;;;;;;;;;;;;22.74;37.44;102187.05;106905;1259;25337;-51
2023/09/10 01:05:52;;;;;;;;;;;;;;;22.72;37.82;102181.50;106721;1267;25363;-53
2023/09/10 01:08:19;;;;;;;;;;;;;;;22.71;37.62;102185.27;106754;1260;25491;-50
2023/09/10 01:10:46;;;;;;;;;;;;;;;22.68;36.96;102184.90;106817;1267;25343;-55
2023/09/10 01:13:22;;;;;;;;;;;;;;;22.65;36.84;102184.30;106775;1270;25503;-51
2023/09/10 01:15:52;;;;;;;;;;;;;;;22.63;36.94;102190.06;106644;1262;25434;-52
2023/09/10 01:18:20;;;;;;;;;;;;;;;22.61;36.57;102192.30;106802;1259;25337;-51
2023/09/10 01:20:53;;;;;;;;;;;;;;;22.59;36.49;102190.42;106421;1274;25265;-51
2023/09/10 01:23:32;;;;;;;;;;;;;;;22.59;36.88;102187.62;106781;1258;22578;-50
2023/09/10 01:25:59;;;;;;;;;;;;;;;22.57;37.01;102191.92;106804;1271;25316;-54
2023/09/10 01:28:26;;;;;;;;;;;;;;;22.56;36.77;102187.71;106723;1261;25350;-51
2023/09/10 01:30:53;;;;;;;;;;;;;;;22.55;36.85;102189.38;104476;1275;1003755;-50
2023/09/10 01:33:27;;;;;;;;;;;;;;;22.54;36.99;102191.38;106777;1267;25344;-55
2023/09/10 01:35:57;;;;;;;;;;;;;;;22.53;37.20;102196.55;106872;1266;22523;-50
2023/09/10 01:38:43;;;;;;;;;;;;;;;22.51;37.22;102193.98;106831;1259;25316;-51
2023/09/10 01:41:16;;;;;;;;;;;;;;;22.50;37.09;102196.52;106829;1256;25344;-55
2023/09/10 01:43:44;;;;;;;;;;;;;;;22.48;37.10;102204.56;106803;1262;22618;-50
2023/09/10 01:46:11;;;;;;;;;;;;;;;22.46;37.37;102204.31;106924;1268;25396;-54
2023/09/10 01:48:38;;;;;;;;;;;;;;;22.44;37.47;102201.41;106071;1269;1003102;-50
2023/09/10 01:51:05;;;;;;;;;;;;;;;22.41;37.34;102201.88;106840;1268;25393;-50
2023/09/10 01:53:32;;;;;;;;;;;;;;;22.40;37.68;102201.59;106779;1268;25316;-50
2023/09/10 01:55:59;;;;;;;;;;;;;;;22.39;37.87;102205.50;106789;1269;22516;-49
2023/09/10 01:58:25;;;;;;;;;;;;;;;22.38;37.76;102206.48;106910;1267;25318;-56
2023/09/10 02:00:53;;;;;;;;;;;;;;;22.35;37.57;102208.89;106782;1268;25344;-51
2023/09/10 02:03:20;;;;;;;;;;;;;;;22.33;37.30;102212.20;106730;1272;25305;-50
2023/09/10 02:05:47;;;;;;;;;;;;;;;22.31;37.19;102212.46;106795;1268;25316;-51
2023/09/10 02:08:14;;;;;;;;;;;;;;;22.28;37.09;102209.77;106807;1267;25306;-55
2023/09/10 02:10:42;;;;;;;;;;;;;;;22.27;37.30;102212.86;106762;1261;25312;-51
2023/09/10 02:13:09;;;;;;;;;;;;;;;22.25;37.46;102213.63;106789;1263;25343;-51
2023/09/10 02:15:36;;;;;;;;;;;;;;;22.22;37.50;102216.08;103841;1271;1003498;-51
2023/09/10 02:18:03;;;;;;;;;;;;;;;22.20;37.30;102216.35;106770;1268;25323;-52
2023/09/10 02:20:35;;;;;;;;;;;;;;;22.19;37.17;102216.07;106422;1272;25321;-53
2023/09/10 02:23:02;;;;;;;;;;;;;;;22.17;37.10;102216.52;106878;1266;22747;-51
2023/09/10 02:25:29;;;;;;;;;;;;;;;22.15;37.00;102221.21;106798;1264;23109;-51
2023/09/10 02:28:00;;;;;;;;;;;;;;;22.13;36.90;102223.23;106811;1265;22524;-50
2023/09/10 02:30:26;;;;;;;;;;;;;;;22.12;37.01;102221.14;106822;1259;25376;-51
2023/09/10 02:32:53;;;;;;;;;;;;;;;22.11;37.21;102221.39;106808;1269;25467;-55
2023/09/10 02:35:20;;;;;;;;;;;;;;;22.10;37.15;102219.65;106821;1256;25491;-55
2023/09/10 02:37:47;;;;;;;;;;;;;;;22.09;37.00;102220.58;106660;1272;25334;-51
2023/09/10 02:40:14;;;;;;;;;;;;;;;22.06;36.58;102220.88;106623;1270;25344;-50
2023/09/10 02:42:42;;;;;;;;;;;;;;;22.04;36.68;102219.98;106759;1268;22523;-50
2023/09/10 02:45:09;;;;;;;;;;;;;;;22.01;36.85;102224.86;106731;1266;25395;-50
2023/09/10 02:47:36;;;;;;;;;;;;;;;21.99;36.91;102223.55;106847;1269;25316;-50
2023/09/10 02:50:03;;;;;;;;;;;;;;;21.97;37.03;102221.70;106652;1274;25539;-51
2023/09/10 02:52:31;;;;;;;;;;;;;;;21.95;37.23;102222.14;106719;1262;25316;-55
2023/09/10 02:54:57;;;;;;;;;;;;;;;21.94;37.40;102222.89;106861;1264;25380;-51
2023/09/10 02:57:25;;;;;;;;;;;;;;;21.92;37.50;102222.09;106814;1269;25371;-51
2023/09/10 02:59:52;;;;;;;;;;;;;;;21.91;37.44;102226.91;106709;1269;25296;-52
2023/09/10 03:02:18;;;;;;;;;;;;;;;21.90;37.27;102227.33;106467;1269;25364;-50
2023/09/10 03:04:45;;;;;;;;;;;;;;;21.88;37.06;102228.66;106368;1267;25296;-51
2023/09/10 03:07:13;;;;;;;;;;;;;;;21.87;36.99;102224.64;106861;1267;25334;-51
2023/09/10 03:09:39;;;;;;;;;;;;;;;21.86;37.09;102223.97;106907;1259;25227;-48
2023/09/10 03:12:39;;;;;;;;;;;;;;;21.84;37.23;102227.38;106739;1260;24230;-54
2023/09/10 03:15:06;;;;;;;;;;;;;;;21.83;37.04;102234.89;106335;1274;25345;-50
2023/09/10 03:17:33;;;;;;;;;;;;;;;21.80;37.03;102239.39;106314;1274;22700;-54
2023/09/10 03:20:00;;;;;;;;;;;;;;;21.78;36.87;102238.24;106321;1275;25424;-57
2023/09/10 03:22:28;;;;;;;;;;;;;;;21.77;37.00;102237.95;106212;1268;25469;-50
2023/09/10 03:24:55;;;;;;;;;;;;;;;21.75;37.16;102237.48;106373;1277;25634;-51
2023/09/10 03:27:22;;;;;;;;;;;;;;;21.74;37.12;102241.08;106236;1276;25351;-51
2023/09/10 03:29:49;;;;;;;;;;;;;;;21.72;37.08;102236.96;106384;1274;25475;-50
2023/09/10 03:32:16;;;;;;;;;;;;;;;21.71;37.01;102240.54;106363;1274;25328;-50
2023/09/10 03:34:47;;;;;;;;;;;;;;;21.69;36.94;102242.02;106259;1267;25454;-53
2023/09/10 03:37:14;;;;;;;;;;;;;;;21.68;36.95;102240.13;106271;1274;25320;-53
2023/09/10 03:39:41;;;;;;;;;;;;;;;21.66;37.00;102242.70;106300;1268;25308;-54
2023/09/10 03:42:09;;;;;;;;;;;;;;;21.64;37.14;102241.36;106279;1274;25332;-50
2023/09/10 03:44:36;;;;;;;;;;;;;;;21.62;37.03;102243.90;106177;1276;25316;-53
2023/09/10 03:47:03;;;;;;;;;;;;;;;21.61;37.03;102245.02;105958;1280;25871;-51
2023/09/10 03:49:32;;;;;;;;;;;;;;;21.61;37.20;102247.15;106282;1274;25471;-53
2023/09/10 03:51:58;;;;;;;;;;;;;;;21.62;37.54;102250.29;106695;1272;25392;-50
2023/09/10 03:54:25;;;;;;;;;;;;;;;21.62;37.69;102251.17;106802;1262;25316;-55
2023/09/10 03:56:52;;;;;;;;;;;;;;;21.62;37.56;102256.79;106814;1259;25344;-50
2023/09/10 03:59:19;;;;;;;;;;;;;;;21.62;37.28;102255.20;106914;1269;25456;-50
2023/09/10 04:01:45;;;;;;;;;;;;;;;21.62;37.20;102260.15;106769;1268;22629;-50
2023/09/10 04:04:12;;;;;;;;;;;;;;;21.61;37.26;102259.32;106414;1278;25327;-53
2023/09/10 04:06:39;;;;;;;;;;;;;;;21.61;37.14;102259.15;106822;1269;25513;-51
2023/09/10 04:09:07;;;;;;;;;;;;;;;21.61;37.12;102258.44;106745;1272;25306;-50
2023/09/10 04:11:34;;;;;;;;;;;;;;;21.62;36.82;102260.86;106747;1269;25396;-50
2023/09/10 04:14:00;;;;;;;;;;;;;;;21.62;36.86;102258.91;106728;1259;25449;-55
2023/09/10 04:16:28;;;;;;;;;;;;;;;21.61;36.96;102259.13;106663;1278;25331;-51
2023/09/10 04:18:55;;;;;;;;;;;;;;;21.61;36.94;102262.33;106756;1259;25481;-50
2023/09/10 04:21:22;;;;;;;;;;;;;;;21.60;37.12;102263.95;106532;1272;25341;-51
2023/09/10 04:23:49;;;;;;;;;;;;;;;21.59;36.90;102263.11;106810;1264;25500;-50
2023/09/10 04:26:16;;;;;;;;;;;;;;;21.60;37.00;102262.02;106869;1268;25313;-56
2023/09/10 04:28:43;;;;;;;;;;;;;;;21.59;36.83;102260.29;106537;1271;25340;-50
2023/09/10 04:31:15;;;;;;;;;;;;;;;21.59;36.79;102263.33;106632;1272;25350;-55
2023/09/10 04:33:42;;;;;;;;;;;;;;;21.58;36.85;102265.63;106861;1269;25498;-51
2023/09/10 04:36:09;;;;;;;;;;;;;;;21.59;36.91;102266.83;106775;1262;25777;-56
2023/09/10 04:38:35;;;;;;;;;;;;;;;21.62;37.20;102267.42;106096;1269;1002975;-50
2023/09/10 04:41:02;;;;;;;;;;;;;;;21.62;37.22;102270.39;106780;1268;24449;-50
2023/09/10 04:43:31;;;;;;;;;;;;;;;21.63;37.04;102272.31;106757;1256;22734;-50
2023/09/10 04:45:58;;;;;;;;;;;;;;;21.64;36.75;102272.10;106764;1271;22507;-50
2023/09/10 04:48:25;;;;;;;;;;;;;;;21.64;36.56;102274.00;106852;1259;25315;-50
2023/09/10 04:50:52;;;;;;;;;;;;;;;21.66;36.39;102271.45;106738;1259;25466;-53
2023/09/10 04:53:19;;;;;;;;;;;;;;;21.67;36.38;102270.87;106813;1269;25336;-50
2023/09/10 04:55:51;;;;;;;;;;;;;;;21.68;36.61;102273.66;106402;1272;25338;-50
2023/09/10 04:58:18;;;;;;;;;;;;;;;21.71;36.82;102273.56;106827;1260;25292;-52
2023/09/10 05:00:45;;;;;;;;;;;;;;;21.72;36.34;102273.16;106856;1272;25309;-50
2023/09/10 05:03:12;;;;;;;;;;;;;;;21.74;36.17;102274.30;106812;1270;24375;-52
2023/09/10 05:05:39;;;;;;;;;;;;;;;21.75;35.93;102273.02;106755;1259;25344;-50
2023/09/10 05:08:06;;;;;;;;;;;;;;;21.76;36.04;102269.95;106923;1260;25334;-54
2023/09/10 05:10:33;;;;;;;;;;;;;;;21.77;35.85;102267.08;106865;1269;25334;-52
2023/09/10 05:13:00;;;;;;;;;;;;;;;21.79;35.94;102268.39;106711;1269;24231;-53
2023/09/10 05:15:27;;;;;;;;;;;;;;;21.81;35.92;102271.15;106849;1268;25465;-51
2023/09/10 05:17:54;;;;;;;;;;;;;;;21.83;35.82;102270.90;106781;1268;25538;-53
2023/09/10 05:20:21;;;;;;;;;;;;;;;21.84;35.90;102270.48;106825;1270;25414;-52
2023/09/10 05:22:55;;;;;;;;;;;;;;;21.87;35.90;102272.48;106752;1269;25379;-50
2023/09/10 05:25:22;;;;;;;;;;;;;;;21.89;35.65;102272.58;106751;1264;25313;-53
2023/09/10 05:27:49;;;;;;;;;;;;;;;21.91;35.29;102276.76;106823;1269;25401;-50
2023/09/10 05:30:17;;;;;;;;;;;;;;;21.93;35.31;102280.69;106843;1262;25420;-51
2023/09/10 05:32:44;;;;;;;;;;;;;;;21.94;35.28;102279.05;106748;1269;25429;-50
2023/09/10 05:35:11;;;;;;;;;;;;;;;21.97;35.42;102282.30;106835;1269;23294;-54
2023/09/10 05:37:38;;;;;;;;;;;;;;;21.99;35.70;102280.80;106723;1278;23862;-50
2023/09/10 05:40:06;;;;;;;;;;;;;;;22.01;35.75;102283.86;106757;1259;25306;-50
2023/09/10 05:42:34;;;;;;;;;;;;;;;22.03;35.69;102282.73;106717;1272;25447;-51
2023/09/10 05:45:00;;;;;;;;;;;;;;;22.04;35.34;102286.75;106786;1269;25520;-54
2023/09/10 05:47:28;;;;;;;;;;;;;;;22.06;35.24;102286.81;106753;1269;25306;-50
2023/09/10 05:49:55;;;;;;;;;;;;;;;22.11;35.09;102291.21;106806;1269;25496;-50
2023/09/10 05:52:22;;;;;;;;;;;;;;;22.14;35.32;102293.35;106813;1269;25338;-52
2023/09/10 05:54:50;;;;;;;;;;;;;;;22.19;35.55;102297.52;106835;1269;25369;-50
2023/09/10 05:57:17;;;;;;;;;;;;;;;22.23;35.38;102300.16;106745;1262;25296;-53
2023/09/10 05:59:43;;;;;;;;;;;;;;;22.26;34.95;102306.38;106802;1269;24021;-50
2023/09/10 06:02:10;;;;;;;;;;;;;;;22.30;34.73;102309.56;106766;1259;25319;-52
2023/09/10 06:04:37;;;;;;;;;;;;;;;22.28;34.90;102314.45;106816;1269;25315;-51
2023/09/10 06:07:05;;;;;;;;;;;;;;;22.32;34.58;102317.59;106628;1265;25396;-56
2023/09/10 06:09:32;;;;;;;;;;;;;;;22.44;34.36;102324.13;104139;1278;1003790;-50
2023/09/10 06:11:59;;;;;;;;;;;;;;;22.54;34.53;102321.16;106775;1268;25499;-51
2023/09/10 06:14:27;;;;;;;;;;;;;;;22.62;33.95;102328.98;106785;1270;25325;-50
2023/09/10 06:16:54;;;;;;;;;;;;;;;22.64;33.63;102329.60;106790;1269;25315;-54
2023/09/10 06:19:21;;;;;;;;;;;;;;;22.66;33.93;102333.76;106716;1259;22609;-52
2023/09/10 06:21:48;;;;;;;;;;;;;;;22.71;33.65;102336.52;106534;1271;24312;-50
2023/09/10 06:24:15;;;;;;;;;;;;;;;22.78;33.55;102337.78;106771;1271;25464;-50
2023/09/10 06:26:41;;;;;;;;;;;;;;;22.86;33.25;102339.31;106828;1269;25331;-53
2023/09/10 06:29:09;;;;;;;;;;;;;;;22.94;33.36;102337.18;106846;1278;25316;-50
2023/09/10 06:31:36;;;;;;;;;;;;;;;23.03;33.32;102342.41;106836;1269;24346;-50
2023/09/10 06:34:04;;;;;;;;;;;;;;;23.10;33.42;102349.66;104477;1269;1003650;-50
2023/09/10 06:36:31;;;;;;;;;;;;;;;23.15;33.39;102346.94;106520;1272;25315;-49
2023/09/10 06:38:58;;;;;;;;;;;;;;;23.17;33.12;102349.46;106675;1269;25387;-49
2023/09/10 06:41:26;;;;;;;;;;;;;;;23.18;33.28;102349.09;106443;1279;25327;-50
2023/09/10 06:43:54;;;;;;;;;;;;;;;23.20;33.47;102351.64;106441;1278;25333;-52
2023/09/10 06:46:21;;;;;;;;;;;;;;;23.21;33.41;102353.02;106512;1262;22638;-50
2023/09/10 06:48:48;;;;;;;;;;;;;;;23.23;33.43;102355.38;106217;1265;25436;-56
2023/09/10 06:51:15;;;;;;;;;;;;;;;23.28;33.68;102356.91;106774;1269;25315;-51
2023/09/10 06:53:42;;;;;;;;;;;;;;;23.33;33.77;102363.05;106760;1269;25370;-50
2023/09/10 06:56:09;;;;;;;;;;;;;;;23.38;33.37;102366.90;106696;1263;25469;-50
2023/09/10 06:58:36;;;;;;;;;;;;;;;23.42;33.36;102367.58;106732;1262;25762;-50
2023/09/10 07:01:04;;;;;;;;;;;;;;;23.49;33.33;102367.91;106719;1273;25500;-51
2023/09/10 07:03:32;;;;;;;;;;;;;;;23.56;33.14;102361.20;106507;1271;25211;-51
2023/09/10 07:06:01;;;;;;;;;;;;;;;23.66;33.20;102362.65;106378;1268;24232;-50
2023/09/10 07:08:29;;;;;;;;;;;;;;;23.80;33.13;102359.04;106750;1269;24355;-49
2023/09/10 07:10:57;;;;;;;;;;;;;;;23.99;32.82;102358.95;106865;1263;25308;-52
2023/09/10 07:13:24;;;;;;;;;;;;;;;24.19;32.79;102359.67;106880;1266;22519;-49
2023/09/10 07:15:50;;;;;;;;;;;;;;;24.32;32.20;102361.50;106825;1263;25379;-50
2023/09/10 07:18:18;;;;;;;;;;;;;;;24.45;32.12;102361.11;106749;1269;25392;-49
2023/09/10 07:20:44;;;;;;;;;;;;;;;24.64;31.77;102360.58;106766;1259;22504;-54
2023/09/10 07:23:11;;;;;;;;;;;;;;;24.86;31.84;102362.93;106842;1267;25305;-49
2023/09/10 07:25:39;;;;;;;;;;;;;;;25.10;31.59;102362.23;106815;1272;25455;-49
2023/09/10 07:28:06;;;;;;;;;;;;;;;25.34;31.07;102359.79;106800;1269;25431;-49
2023/09/10 07:30:33;;;;;;;;;;;;;;;25.45;30.59;102361.27;106835;1275;25504;-53
2023/09/10 07:33:00;;;;;;;;;;;;;;;25.46;30.43;102371.35;106059;1267;1003118;-49
2023/09/10 07:35:27;;;;;;;;;;;;;;;25.44;30.42;102372.21;106784;1259;25395;-50
2023/09/10 07:37:54;;;;;;;;;;;;;;;25.42;30.44;102373.05;106783;1267;25341;-50
2023/09/10 07:40:22;;;;;;;;;;;;;;;25.38;30.14;102373.60;106884;1272;25320;-51
2023/09/10 07:42:48;;;;;;;;;;;;;;;25.31;30.05;102373.45;106747;1270;25402;-55
2023/09/10 07:45:16;;;;;;;;;;;;;;;25.24;30.26;102374.75;106883;1270;25354;-49
2023/09/10 07:47:43;;;;;;;;;;;;;;;25.19;30.45;102373.11;106817;1266;25306;-50
2023/09/10 07:50:10;;;;;;;;;;;;;;;25.10;30.39;102378.60;106786;1270;25309;-54
2023/09/10 07:52:37;;;;;;;;;;;;;;;24.96;30.44;102375.85;106834;1273;25396;-52
2023/09/10 07:55:04;;;;;;;;;;;;;;;24.81;30.73;102374.04;106798;1269;22621;-49
2023/09/10 07:57:31;;;;;;;;;;;;;;;24.70;31.13;102372.65;106713;1268;25444;-49
2023/09/10 07:59:58;;;;;;;;;;;;;;;24.63;31.27;102371.44;106758;1270;25341;-50
2023/09/10 08:02:26;;;;;;;;;;;;;;;24.60;31.65;102371.84;106793;1269;25306;-50
2023/09/10 08:04:54;;;;;;;;;;;;;;;24.58;31.61;102374.07;106652;1267;25319;-48
2023/09/10 08:07:21;;;;;;;;;;;;;;;24.53;31.52;102373.98;106817;1266;25462;-49
2023/09/10 08:09:48;;;;;;;;;;;;;;;24.48;31.49;102371.62;106814;1259;25313;-52
2023/09/10 08:12:14;;;;;;;;;;;;;;;24.45;31.65;102375.13;106742;1268;25305;-50
2023/09/10 08:14:41;;;;;;;;;;;;;;;24.42;31.80;102374.21;106629;1261;25451;-50
2023/09/10 08:17:08;;;;;;;;;;;;;;;24.37;31.88;102373.77;106615;1263;25309;-53
2023/09/10 08:19:35;;;;;;;;;;;;;;;24.34;31.87;102379.96;106866;1264;25382;-49
2023/09/10 08:22:02;;;;;;;;;;;;;;;24.34;31.92;102382.50;104363;1271;1003837;-50
2023/09/10 08:24:30;;;;;;;;;;;;;;;24.35;31.81;102381.37;106778;1273;25374;-50
2023/09/10 08:27:00;;;;;;;;;;;;;;;24.37;31.91;102381.78;106711;1263;25302;-50
2023/09/10 08:29:27;;;;;;;;;;;;;;;24.39;31.96;102382.70;106750;1269;25334;-52
2023/09/10 08:31:54;;;;;;;;;;;;;;;24.40;31.56;102384.45;106738;1273;25313;-49
2023/09/10 08:34:21;;;;;;;;;;;;;;;24.39;31.69;102384.34;106796;1259;25465;-50
2023/09/10 08:36:47;;;;;;;;;;;;;;;24.40;31.69;102385.70;106707;1274;25305;-50
2023/09/10 08:39:14;;;;;;;;;;;;;;;24.43;31.55;102386.97;106806;1269;25371;-49
2023/09/10 08:41:57;;;;;;;;;;;;;;;24.40;31.25;102384.27;106767;1274;25309;-50
2023/09/10 08:44:25;;;;;;;;;;;;;;;24.36;31.42;102387.70;106790;1259;25323;-50
2023/09/10 08:46:52;;;;;;;;;;;;;;;24.37;31.56;102386.39;105390;1270;1002995;-51
2023/09/10 08:49:19;;;;;;;;;;;;;;;24.42;31.44;102384.35;106729;1263;25327;-56
2023/09/10 08:51:46;;;;;;;;;;;;;;;24.49;31.60;102388.40;106701;1272;25327;-49
2023/09/10 08:54:13;;;;;;;;;;;;;;;24.51;31.42;102387.05;106856;1269;25435;-55
2023/09/10 08:56:40;;;;;;;;;;;;;;;24.52;31.47;102385.91;106796;1258;25338;-49
2023/09/10 08:59:07;;;;;;;;;;;;;;;24.55;31.47;102387.19;106755;1260;25379;-49
2023/09/10 09:01:34;;;;;;;;;;;;;;;24.57;31.55;102383.89;106634;1262;24173;-49
2023/09/10 09:04:01;;;;;;;;;;;;;;;24.60;31.67;102386.71;106763;1269;25368;-50
2023/09/10 09:06:28;;;;;;;;;;;;;;;24.62;31.48;102390.35;106795;1272;25296;-49
2023/09/10 09:08:56;;;;;;;;;;;;;;;24.60;31.44;102390.63;106472;1262;25334;-51
2023/09/10 09:11:24;;;;;;;;;;;;;;;24.62;31.79;102386.45;106803;1260;22597;-50
2023/09/10 09:13:52;;;;;;;;;;;;;;;24.65;31.94;102385.70;106832;1275;25417;-49
2023/09/10 09:16:20;;;;;;;;;;;;;;;24.70;31.92;102385.65;106798;1266;25246;-50
2023/09/10 09:18:47;;;;;;;;;;;;;;;24.73;31.84;102384.40;106836;1273;25494;-51
2023/09/10 09:21:18;;;;;;;;;;;;;;;24.76;31.84;102384.98;106423;1275;25337;-49
2023/09/10 09:23:46;;;;;;;;;;;;;;;24.80;32.08;102379.80;106460;1273;25334;-49
2023/09/10 09:26:14;;;;;;;;;;;;;;;24.85;32.01;102381.25;106845;1269;25325;-50
2023/09/10 09:28:40;;;;;;;;;;;;;;;24.88;32.15;102380.92;106849;1268;22511;-49
2023/09/10 09:31:11;;;;;;;;;;;;;;;24.90;32.09;102379.72;107083;1263;25333;-50
2023/09/10 09:33:39;;;;;;;;;;;;;;;24.87;31.83;102379.73;106822;1260;25396;-48
2023/09/10 09:36:09;;;;;;;;;;;;;;;24.81;31.68;102374.36;106856;1264;25372;-53
2023/09/10 09:38:46;;;;;;;;;;;;;;;24.74;31.76;102373.03;106655;1278;25334;-50
2023/09/10 09:41:13;;;;;;;;;;;;;;;24.68;32.22;102369.22;106808;1272;24191;-49
2023/09/10 09:43:41;;;;;;;;;;;;;;;24.66;32.49;102366.84;106856;1268;25334;-49
2023/09/10 09:46:07;;;;;;;;;;;;;;;24.65;32.95;102367.13;106738;1266;25465;-50
2023/09/10 09:48:34;;;;;;;;;;;;;;;24.64;33.22;102365.94;106795;1268;25333;-50
2023/09/10 09:51:02;;;;;;;;;;;;;;;24.61;33.55;102363.59;106823;1269;25331;-49
2023/09/10 09:53:32;;;;;;;;;;;;;;;24.59;33.37;102359.27;106006;1272;1003703;-52
2023/09/10 09:56:00;;;;;;;;;;;;;;;24.57;33.50;102360.98;106819;1272;25370;-52
2023/09/10 09:58:30;;;;;;;;;;;;;;;24.57;33.88;102356.00;106762;1269;25306;-49
2023/09/10 10:00:57;;;;;;;;;;;;;;;24.59;33.89;102360.52;106727;1274;25381;-51
2023/09/10 10:03:24;;;;;;;;;;;;;;;24.57;33.87;102358.84;106852;1269;25305;-50
2023/09/10 10:05:52;;;;;;;;;;;;;;;24.56;33.81;102363.00;106830;1266;25366;-50
2023/09/10 10:08:19;;;;;;;;;;;;;;;24.57;33.67;102360.23;106802;1270;25334;-54
2023/09/10 10:10:47;;;;;;;;;;;;;;;24.61;33.86;102358.62;106481;1270;25503;-51
2023/09/10 10:13:18;;;;;;;;;;;;;;;24.65;33.70;102362.12;106265;1270;25364;-51
2023/09/10 10:15:45;;;;;;;;;;;;;;;24.67;33.39;102365.59;106635;1270;25386;-51
2023/09/10 10:18:16;;;;;;;;;;;;;;;24.70;33.21;102363.23;106861;1264;22516;-51
2023/09/10 10:20:47;;;;;;;;;;;;;;;24.74;33.37;102359.31;106646;1260;26569;-51
2023/09/10 10:23:14;;;;;;;;;;;;;;;24.77;32.97;102357.60;106776;1271;24169;-49
2023/09/10 10:25:57;;;;;;;;;;;;;;;24.77;32.78;102357.38;106597;1257;24356;-50
2023/09/10 10:28:24;;;;;;;;;;;;;;;24.79;32.55;102353.23;106653;1271;25330;-49
2023/09/10 10:30:56;;;;;;;;;;;;;;;24.81;32.91;102350.63;106245;1271;25499;-50
2023/09/10 10:33:23;;;;;;;;;;;;;;;24.84;33.14;102348.33;106828;1257;25443;-50
2023/09/10 10:35:55;;;;;;;;;;;;;;;24.88;32.87;102350.20;106773;1264;25558;-50
2023/09/10 10:38:22;;;;;;;;;;;;;;;24.88;32.83;102348.98;106857;1267;25337;-50
2023/09/10 10:40:49;;;;;;;;;;;;;;;24.88;32.70;102350.77;106820;1270;25477;-51
2023/09/10 10:43:20;;;;;;;;;;;;;;;24.90;33.00;102347.60;106790;1270;25306;-53
2023/09/10 10:45:47;;;;;;;;;;;;;;;24.93;33.07;102348.67;106847;1275;25386;-49
2023/09/10 10:48:18;;;;;;;;;;;;;;;24.91;33.11;102343.97;106721;1270;25329;-50
2023/09/10 10:50:45;;;;;;;;;;;;;;;24.89;33.14;102339.70;106742;1267;25258;-50
2023/09/10 10:53:23;;;;;;;;;;;;;;;24.87;33.07;102339.41;106835;1267;25326;-50
2023/09/10 10:55:51;;;;;;;;;;;;;;;24.84;32.76;102338.86;106936;1268;25324;-50
2023/09/10 10:58:23;;;;;;;;;;;;;;;24.79;33.05;102336.52;106743;1271;23848;-50
2023/09/10 11:00:53;;;;;;;;;;;;;;;24.78;33.18;102336.58;106794;1260;24209;-49
2023/09/10 11:03:20;;;;;;;;;;;;;;;24.80;33.02;102335.41;106775;1261;25385;-49
2023/09/10 11:05:54;;;;;;;;;;;;;;;24.81;32.80;102331.98;106899;1269;25319;-49
2023/09/10 11:08:24;;;;;;;;;;;;;;;24.84;32.60;102330.02;106854;1261;25353;-49
2023/09/10 11:10:51;;;;;;;;;;;;;;;24.86;32.61;102326.52;106937;1264;22515;-50
2023/09/10 11:13:18;;;;;;;;;;;;;;;24.87;32.57;102323.60;106355;1275;25396;-49
2023/09/10 11:16:15;;;;;;;;;;;;;;;24.88;32.46;102320.55;106685;1269;25312;-49
2023/09/10 11:18:42;;;;;;;;;;;;;;;24.90;32.52;102315.81;106376;1276;25493;-50
2023/09/10 11:21:16;;;;;;;;;;;;;;;24.93;32.17;102312.95;106315;1276;25532;-50
2023/09/10 11:23:51;;;;;;;;;;;;;;;24.98;32.10;102315.55;106428;1263;22713;-49
2023/09/10 11:26:21;;;;;;;;;;;;;;;25.01;31.99;102306.86;106348;1277;25340;-50
2023/09/10 11:28:51;;;;;;;;;;;;;;;25.01;32.11;102305.39;106292;1263;25696;-55
2023/09/10 11:31:30;;;;;;;;;;;;;;;25.02;31.90;102303.95;106328;1277;25305;-50
2023/09/10 11:34:00;;;;;;;;;;;;;;;25.02;32.24;102301.77;106281;1274;24308;-50
2023/09/10 11:36:27;;;;;;;;;;;;;;;25.05;32.01;102301.30;106340;1276;25383;-52
2023/09/10 11:38:55;;;;;;;;;;;;;;;25.06;31.78;102294.81;106236;1280;25373;-49
2023/09/10 11:41:21;;;;;;;;;;;;;;;25.09;31.81;102291.83;106413;1273;25350;-50
2023/09/10 11:43:49;;;;;;;;;;;;;;;25.11;31.42;102295.64;106405;1273;25468;-53
2023/09/10 11:46:16;;;;;;;;;;;;;;;25.10;30.91;102290.15;106473;1266;22510;-49
2023/09/10 11:48:44;;;;;;;;;;;;;;;25.06;30.92;102289.51;106409;1264;25379;-49
2023/09/10 11:51:11;;;;;;;;;;;;;;;25.01;31.10;102289.09;106296;1277;25379;-50
2023/09/10 11:53:37;;;;;;;;;;;;;;;24.98;31.26;102288.77;106336;1270;24215;-50
2023/09/10 11:56:04;;;;;;;;;;;;;;;24.97;31.46;102289.14;106718;1273;25334;-49
2023/09/10 11:58:31;;;;;;;;;;;;;;;24.98;31.26;102284.45;106695;1269;25324;-50
2023/09/10 12:00:58;;;;;;;;;;;;;;;25.00;31.66;102282.75;106701;1266;25314;-49
2023/09/10 12:03:25;;;;;;;;;;;;;;;25.01;31.85;102278.95;106670;1264;25373;-49
2023/09/10 12:05:53;;;;;;;;;;;;;;;25.02;31.66;102274.11;106755;1270;25305;-49
2023/09/10 12:08:19;;;;;;;;;;;;;;;25.02;31.81;102273.75;106722;1270;25334;-49
2023/09/10 12:10:46;;;;;;;;;;;;;;;25.04;31.75;102268.48;106814;1260;25376;-50
2023/09/10 12:13:13;;;;;;;;;;;;;;;25.06;31.61;102266.60;106665;1270;25344;-49
2023/09/10 12:15:40;;;;;;;;;;;;;;;25.08;31.03;102260.64;106765;1260;22632;-52
2023/09/10 12:18:07;;;;;;;;;;;;;;;25.09;31.18;102262.36;106751;1267;25393;-50
2023/09/10 12:20:34;;;;;;;;;;;;;;;25.09;31.19;102258.05;106847;1270;25338;-52
2023/09/10 12:23:08;;;;;;;;;;;;;;;25.15;30.97;102254.17;103775;1292;544907;-50
2023/09/10 12:25:36;;;;;;;;;;;;;;;25.14;30.75;102257.45;105789;1269;25360;-50
2023/09/10 12:28:04;;;;;;;;;;;;;;;25.16;30.65;102256.27;105650;1287;22547;-51
2023/09/10 12:30:31;;;;;;;;;;;;;;;25.18;30.27;102254.52;105964;1268;24281;-54